Time;durP1;ratioP1;P1;durP2;ratioP2;P2;SDS_P1;SDS_P2;PMS_P1;PMS_P2;Temp;Humidity;BMP_temperature;BMP_pressure;BME280_temperature;BME280_humidity;BME280_pressure;Samples;Min_cycle;Max_cycle;Signal;HPM_P1;HPM_P2
2023/04/08 00:00:14;;;;;;;43.60;19.60;;;;;;;;;;6275945;28;20045;-54
2023/04/08 00:03:34;;;;;;;44.42;20.13;;;;;;;;;;6274792;28;20156;-56
2023/04/08 00:06:36;;;;;;;48.92;22.52;;;;;;;;;;6274622;28;20535;-62
2023/04/08 00:09:37;;;;;;;52.80;25.75;;;;;;;;;;6274784;28;20091;-61
2023/04/08 00:12:38;;;;;;;41.20;19.73;;;;;;;;;;6277252;28;20105;-55
2023/04/08 00:15:39;;;;;;;44.55;21.75;;;;;;;;;;6273770;28;20408;-56
2023/04/08 00:18:41;;;;;;;43.88;21.55;;;;;;;;;;6276621;28;20130;-54
2023/04/08 00:21:41;;;;;;;46.33;21.77;;;;;;;;;;6275359;28;20144;-57
2023/04/08 00:24:42;;;;;;;40.60;20.05;;;;;;;;;;6273881;28;20411;-54
2023/04/08 00:27:43;;;;;;;39.08;19.08;;;;;;;;;;6274802;28;20047;-55
2023/04/08 00:30:43;;;;;;;38.00;17.60;;;;;;;;;;6274553;28;20052;-55
2023/04/08 00:33:44;;;;;;;40.33;20.52;;;;;;;;;;6275807;28;20044;-55
2023/04/08 00:36:46;;;;;;;36.50;17.27;;;;;;;;;;6273145;28;20049;-56
2023/04/08 00:39:46;;;;;;;40.17;18.23;;;;;;;;;;6274088;28;20677;-55
2023/04/08 00:42:47;;;;;;;41.92;19.23;;;;;;;;;;6275108;28;20301;-55
2023/04/08 00:45:48;;;;;;;38.25;18.77;;;;;;;;;;6273701;28;20087;-55
2023/04/08 00:48:49;;;;;;;33.90;16.75;;;;;;;;;;6273558;28;20148;-55
2023/04/08 00:51:50;;;;;;;36.35;17.83;;;;;;;;;;6276070;28;20052;-54
2023/04/08 00:54:51;;;;;;;36.72;17.95;;;;;;;;;;6271654;28;20041;-57
2023/04/08 00:57:52;;;;;;;37.63;18.20;;;;;;;;;;6274188;28;20553;-56
2023/04/08 01:00:59;;;;;;;37.37;19.07;;;;;;;;;;6274574;28;20089;-55
2023/04/08 01:04:23;;;;;;;31.42;16.58;;;;;;;;;;6274373;28;20049;-59
2023/04/08 01:07:31;;;;;;;29.67;14.95;;;;;;;;;;6274356;28;20501;-55
2023/04/08 01:10:33;;;;;;;29.73;14.15;;;;;;;;;;6274015;28;20056;-55
2023/04/08 01:13:38;;;;;;;28.75;13.48;;;;;;;;;;6271846;28;20048;-57
2023/04/08 01:16:40;;;;;;;30.35;15.13;;;;;;;;;;6273087;28;20052;-56
2023/04/08 01:19:43;;;;;;;;;;;;;;;;;;6275453;28;20067;-55
2023/04/08 01:22:59;;;;;;;31.88;14.70;;;;;;;;;;6274804;28;19920;-55
2023/04/08 01:25:59;;;;;;;30.90;14.57;;;;;;;;;;6270700;28;20138;-56
2023/04/08 01:29:02;;;;;;;30.45;14.95;;;;;;;;;;6274144;28;20688;-54
2023/04/08 01:32:04;;;;;;;27.30;13.30;;;;;;;;;;6273125;28;20051;-53
2023/04/08 01:35:06;;;;;;;33.25;16.63;;;;;;;;;;6271283;28;20245;-56
2023/04/08 01:38:09;;;;;;;30.90;15.48;;;;;;;;;;6274543;28;20535;-53
2023/04/08 01:41:10;;;;;;;28.08;15.25;;;;;;;;;;6272615;28;20048;-55
2023/04/08 01:44:13;;;;;;;35.33;18.40;;;;;;;;;;6272382;28;20063;-56
2023/04/08 01:47:14;;;;;;;32.63;17.08;;;;;;;;;;6274237;28;20048;-55
2023/04/08 01:50:15;;;;;;;32.77;15.80;;;;;;;;;;6274666;28;20040;-53
2023/04/08 01:53:16;;;;;;;38.70;16.83;;;;;;;;;;6276985;28;20049;-63
2023/04/08 01:56:21;;;;;;;35.30;15.97;;;;;;;;;;6267688;28;20415;-61
2023/04/08 01:59:27;;;;;;;33.75;16.23;;;;;;;;;;6272900;28;20040;-61
2023/04/08 02:02:30;;;;;;;32.40;16.42;;;;;;;;;;6270966;28;20059;-61
2023/04/08 02:05:31;;;;;;;38.10;18.10;;;;;;;;;;6270789;28;20570;-63
2023/04/08 02:08:34;;;;;;;36.58;17.17;;;;;;;;;;6266011;28;20045;-61
2023/04/08 02:11:34;;;;;;;35.63;17.65;;;;;;;;;;6271394;28;20075;-54
2023/04/08 02:14:36;;;;;;;38.50;18.83;;;;;;;;;;6270563;28;20048;-58
2023/04/08 02:17:54;;;;;;;39.60;18.48;;;;;;;;;;6270389;28;20048;-63
2023/04/08 02:21:07;;;;;;;37.92;18.90;;;;;;;;;;6273612;28;20381;-55
2023/04/08 02:24:12;;;;;;;42.30;20.55;;;;;;;;;;6275848;28;20419;-58
2023/04/08 02:27:15;;;;;;;40.42;18.77;;;;;;;;;;6269420;28;20049;-63
2023/04/08 02:30:17;;;;;;;48.28;26.20;;;;;;;;;;6271356;28;20552;-63
2023/04/08 02:33:20;;;;;;;47.78;21.52;;;;;;;;;;6270429;28;20124;-57
2023/04/08 02:36:21;;;;;;;;;;;;;;;;;;6269843;28;20095;-53
2023/04/08 02:39:30;;;;;;;34.85;17.00;;;;;;;;;;6269382;28;19921;-60
2023/04/08 02:42:30;;;;;;;29.80;14.73;;;;;;;;;;6271599;28;20059;-57
2023/04/08 02:45:38;;;;;;;36.53;18.73;;;;;;;;;;6271066;28;20057;-55
2023/04/08 02:48:38;;;;;;;32.08;16.15;;;;;;;;;;6282284;28;20049;-55
2023/04/08 02:51:39;;;;;;;30.67;16.02;;;;;;;;;;6289410;28;20713;-57
2023/04/08 02:54:39;;;;;;;34.58;18.20;;;;;;;;;;6278863;28;20051;-53
2023/04/08 02:57:41;;;;;;;36.05;18.70;;;;;;;;;;6288289;28;20051;-56
2023/04/08 03:00:42;;;;;;;36.33;17.13;;;;;;;;;;6269069;28;20138;-63
2023/04/08 03:03:42;;;;;;;35.00;16.83;;;;;;;;;;6268935;28;20744;-53
2023/04/08 03:06:43;;;;;;;38.45;18.60;;;;;;;;;;6268816;28;20052;-55
2023/04/08 03:09:44;;;;;;;36.78;17.92;;;;;;;;;;6267557;28;20044;-58
2023/04/08 03:12:44;;;;;;;39.15;18.40;;;;;;;;;;6266104;28;20049;-54
2023/04/08 03:15:45;;;;;;;42.88;21.10;;;;;;;;;;6271659;28;20044;-59
2023/04/08 03:18:46;;;;;;;41.50;19.15;;;;;;;;;;6289573;28;20059;-55
2023/04/08 03:21:46;;;;;;;37.90;18.80;;;;;;;;;;6271203;28;20435;-62
2023/04/08 03:24:47;;;;;;;41.78;19.65;;;;;;;;;;6283844;28;20063;-57
2023/04/08 03:27:47;;;;;;;42.20;18.45;;;;;;;;;;6284494;28;20057;-56
2023/04/08 03:30:48;;;;;;;37.15;16.90;;;;;;;;;;6281299;28;20044;-54
2023/04/08 03:33:49;;;;;;;40.05;19.40;;;;;;;;;;6273111;28;20051;-55
2023/04/08 03:36:49;;;;;;;39.17;17.75;;;;;;;;;;6276570;28;20057;-55
2023/04/08 03:39:50;;;;;;;37.70;16.90;;;;;;;;;;6269913;28;20130;-53
2023/04/08 03:42:50;;;;;;;43.55;19.48;;;;;;;;;;6269587;28;20475;-56
2023/04/08 03:45:51;;;;;;;37.78;16.63;;;;;;;;;;6282539;28;20741;-55
2023/04/08 03:48:51;;;;;;;37.53;17.35;;;;;;;;;;6285705;28;20062;-55
2023/04/08 03:51:52;;;;;;;41.42;20.25;;;;;;;;;;6280312;28;20064;-53
2023/04/08 03:54:53;;;;;;;39.80;17.83;;;;;;;;;;6279246;28;20044;-54
2023/04/08 03:57:54;;;;;;;39.75;18.83;;;;;;;;;;6281534;28;20399;-56
2023/04/08 04:00:54;;;;;;;38.63;17.90;;;;;;;;;;6274020;28;20056;-54
2023/04/08 04:03:55;;;;;;;44.38;20.70;;;;;;;;;;6275646;28;20083;-54
2023/04/08 04:06:56;;;;;;;41.90;19.38;;;;;;;;;;6276273;28;20142;-53
2023/04/08 04:09:56;;;;;;;40.63;20.42;;;;;;;;;;6278303;28;20064;-56
2023/04/08 04:12:57;;;;;;;38.13;19.02;;;;;;;;;;6278805;28;20049;-55
2023/04/08 04:15:58;;;;;;;39.40;17.52;;;;;;;;;;6279631;28;20094;-54
2023/04/08 04:18:58;;;;;;;40.63;20.58;;;;;;;;;;6283575;28;20044;-55
2023/04/08 04:21:59;;;;;;;40.53;17.85;;;;;;;;;;6283171;28;20087;-56
2023/04/08 04:24:59;;;;;;;38.83;17.85;;;;;;;;;;6281877;28;20384;-57
2023/04/08 04:28:01;;;;;;;38.05;18.70;;;;;;;;;;6279715;28;20037;-63
2023/04/08 04:31:02;;;;;;;38.13;17.63;;;;;;;;;;6283269;28;20052;-62
2023/04/08 04:34:03;;;;;;;37.50;16.92;;;;;;;;;;6284934;28;20048;-53
2023/04/08 04:37:03;;;;;;;30.88;14.80;;;;;;;;;;6294536;28;20041;-54
2023/04/08 04:40:06;;;;;;;36.08;15.90;;;;;;;;;;6276182;28;20049;-55
2023/04/08 04:43:06;;;;;;;35.35;17.15;;;;;;;;;;6292650;28;20052;-54
2023/04/08 04:46:07;;;;;;;32.15;15.40;;;;;;;;;;6279319;28;20106;-55
2023/04/08 04:49:08;;;;;;;37.25;16.63;;;;;;;;;;6274960;28;20045;-53
2023/04/08 04:52:09;;;;;;;35.40;17.13;;;;;;;;;;6271284;28;20104;-52
2023/04/08 04:55:09;;;;;;;35.17;16.52;;;;;;;;;;6274265;28;20484;-51
2023/04/08 04:58:10;;;;;;;34.55;16.77;;;;;;;;;;6273293;28;20181;-53
2023/04/08 05:01:10;;;;;;;35.65;16.10;;;;;;;;;;6277487;28;20049;-53
2023/04/08 05:04:11;;;;;;;35.28;17.00;;;;;;;;;;6270480;28;20510;-53
2023/04/08 05:07:11;;;;;;;36.95;18.42;;;;;;;;;;6272941;28;20040;-51
2023/04/08 05:10:12;;;;;;;35.00;16.55;;;;;;;;;;6267798;28;20080;-54
2023/04/08 05:13:13;;;;;;;34.85;16.00;;;;;;;;;;6268837;28;20817;-53
2023/04/08 05:16:14;;;;;;;33.45;16.98;;;;;;;;;;6272063;28;20040;-56
2023/04/08 05:19:14;;;;;;;34.00;15.35;;;;;;;;;;6270265;28;20052;-51
2023/04/08 05:22:15;;;;;;;36.35;17.70;;;;;;;;;;6273535;28;20411;-54
2023/04/08 05:25:16;;;;;;;37.17;17.42;;;;;;;;;;6271722;28;20041;-60
2023/04/08 05:28:16;;;;;;;39.35;19.30;;;;;;;;;;6267985;28;20455;-56
2023/04/08 05:31:20;;;;;;;33.20;17.45;;;;;;;;;;6270582;28;20037;-52
2023/04/08 05:34:21;;;;;;;36.67;17.20;;;;;;;;;;6283092;28;20041;-57
2023/04/08 05:37:22;;;;;;;38.40;18.85;;;;;;;;;;6274524;28;20044;-54
2023/04/08 05:40:23;;;;;;;40.92;20.90;;;;;;;;;;6270717;28;20552;-54
2023/04/08 05:43:23;;;;;;;43.75;19.25;;;;;;;;;;6267067;28;20041;-56
2023/04/08 05:46:24;;;;;;;51.20;23.90;;;;;;;;;;6267348;28;20044;-60
2023/04/08 05:49:25;;;;;;;49.80;22.92;;;;;;;;;;6269316;28;20461;-59
2023/04/08 05:52:25;;;;;;;48.03;22.17;;;;;;;;;;6270271;28;20535;-54
2023/04/08 05:55:26;;;;;;;46.90;22.00;;;;;;;;;;6273856;28;20495;-53
2023/04/08 05:58:27;;;;;;;35.75;16.25;;;;;;;;;;6279537;28;20494;-56
2023/04/08 06:01:27;;;;;;;38.25;17.92;;;;;;;;;;6269400;28;20049;-60
2023/04/08 06:04:28;;;;;;;40.10;16.80;;;;;;;;;;6270400;28;20411;-54
2023/04/08 06:07:29;;;;;;;33.72;16.05;;;;;;;;;;6272221;28;20057;-51
2023/04/08 06:10:32;;;;;;;33.28;16.45;;;;;;;;;;6267327;28;20079;-54
2023/04/08 06:13:33;;;;;;;33.17;15.02;;;;;;;;;;6285454;28;20052;-55
2023/04/08 06:16:33;;;;;;;37.13;16.42;;;;;;;;;;6272661;28;20044;-55
2023/04/08 06:19:34;;;;;;;39.95;17.52;;;;;;;;;;6268410;28;20060;-55
2023/04/08 06:22:35;;;;;;;36.70;17.27;;;;;;;;;;6271134;28;20044;-60
2023/04/08 06:25:35;;;;;;;38.22;15.75;;;;;;;;;;6267598;28;20106;-55
2023/04/08 06:28:36;;;;;;;32.38;15.55;;;;;;;;;;6265435;28;20590;-56
2023/04/08 06:31:37;;;;;;;31.13;15.05;;;;;;;;;;6269183;28;20395;-55
2023/04/08 06:34:37;;;;;;;32.78;15.85;;;;;;;;;;6271604;28;20079;-58
2023/04/08 06:37:38;;;;;;;33.80;15.32;;;;;;;;;;6270053;28;20055;-62
2023/04/08 06:40:39;;;;;;;33.10;14.70;;;;;;;;;;6269541;28;20561;-56
2023/04/08 06:43:40;;;;;;;35.67;16.00;;;;;;;;;;6278376;28;20514;-59
2023/04/08 06:46:40;;;;;;;30.48;15.05;;;;;;;;;;6285757;28;20041;-56
2023/04/08 06:49:41;;;;;;;32.00;16.23;;;;;;;;;;6267494;28;20041;-54
2023/04/08 06:52:42;;;;;;;32.38;16.83;;;;;;;;;;6269605;28;20519;-56
2023/04/08 06:55:42;;;;;;;34.25;17.02;;;;;;;;;;6271277;28;20052;-54
2023/04/08 06:58:43;;;;;;;30.13;13.82;;;;;;;;;;6270320;28;20439;-58
2023/04/08 07:01:43;;;;;;;27.88;13.48;;;;;;;;;;6271199;28;20445;-53
2023/04/08 07:04:44;;;;;;;29.23;13.75;;;;;;;;;;6269050;28;20764;-57
2023/04/08 07:07:45;;;;;;;29.02;14.27;;;;;;;;;;6270222;28;20053;-57
2023/04/08 07:10:45;;;;;;;27.52;15.15;;;;;;;;;;6281709;28;21968;-54
2023/04/08 07:13:46;;;;;;;30.23;14.60;;;;;;;;;;6267393;28;20149;-56
2023/04/08 07:16:46;;;;;;;24.17;11.80;;;;;;;;;;6269674;28;20076;-54
2023/04/08 07:19:48;;;;;;;26.25;12.68;;;;;;;;;;6270386;28;20467;-55
2023/04/08 07:22:49;;;;;;;26.60;12.20;;;;;;;;;;6270718;28;20041;-56
2023/04/08 07:25:50;;;;;;;45.03;19.77;;;;;;;;;;6271199;28;20064;-57
2023/04/08 07:28:51;;;;;;;27.08;12.60;;;;;;;;;;6271121;28;20131;-56
2023/04/08 07:31:52;;;;;;;23.55;12.85;;;;;;;;;;6271508;28;20052;-52
2023/04/08 07:34:53;;;;;;;27.15;13.30;;;;;;;;;;6271335;28;20052;-56
2023/04/08 07:37:53;;;;;;;31.58;16.90;;;;;;;;;;6267406;28;20502;-59
2023/04/08 07:40:54;;;;;;;32.33;15.63;;;;;;;;;;6264973;28;20610;-58
2023/04/08 07:43:55;;;;;;;38.35;19.38;;;;;;;;;;6291231;28;20064;-58
2023/04/08 07:46:55;;;;;;;35.55;17.13;;;;;;;;;;6285299;28;20072;-57
2023/04/08 07:49:56;;;;;;;32.28;17.13;;;;;;;;;;6274837;28;20044;-58
2023/04/08 07:52:56;;;;;;;24.83;12.75;;;;;;;;;;6292148;28;20561;-55
2023/04/08 07:55:57;;;;;;;35.38;15.40;;;;;;;;;;6274948;28;20045;-54
2023/04/08 07:58:58;;;;;;;24.85;12.60;;;;;;;;;;6271158;28;20339;-54
2023/04/08 08:01:58;;;;;;;27.67;13.52;;;;;;;;;;6274876;28;20049;-56
2023/04/08 08:05:02;;;;;;;24.42;12.75;;;;;;;;;;6289496;28;20048;-58
2023/04/08 08:08:02;;;;;;;25.63;12.65;;;;;;;;;;6288130;28;20502;-54
2023/04/08 08:11:03;;;;;;;22.58;10.93;;;;;;;;;;6275642;28;20048;-55
2023/04/08 08:14:04;;;;;;;23.90;12.82;;;;;;;;;;6273463;28;20399;-54
2023/04/08 08:17:07;;;;;;;23.58;12.00;;;;;;;;;;6273613;28;20090;-58
2023/04/08 08:20:07;;;;;;;26.02;12.93;;;;;;;;;;6292736;28;20052;-57
2023/04/08 08:23:08;;;;;;;22.73;12.18;;;;;;;;;;6279741;28;20040;-56
2023/04/08 08:26:09;;;;;;;25.90;11.80;;;;;;;;;;6289291;28;20072;-56
2023/04/08 08:29:10;;;;;;;21.77;11.40;;;;;;;;;;6282338;28;20105;-52
2023/04/08 08:32:11;;;;;;;23.17;11.80;;;;;;;;;;6285734;28;20057;-57
2023/04/08 08:35:12;;;;;;;21.52;12.50;;;;;;;;;;6293216;28;20055;-56
2023/04/08 08:38:12;;;;;;;18.25;9.85;;;;;;;;;;6273187;28;20045;-56
2023/04/08 08:41:14;;;;;;;19.73;10.73;;;;;;;;;;6291045;28;20050;-58
2023/04/08 08:44:14;;;;;;;19.30;9.77;;;;;;;;;;6282084;28;20720;-56
2023/04/08 08:47:16;;;;;;;20.13;10.77;;;;;;;;;;6271624;28;20044;-54
2023/04/08 08:50:17;;;;;;;13.75;7.72;;;;;;;;;;6281084;28;20122;-57
2023/04/08 08:53:19;;;;;;;16.05;8.18;;;;;;;;;;6278509;28;20045;-58
2023/04/08 08:56:20;;;;;;;15.05;7.50;;;;;;;;;;6272305;28;20055;-58
2023/04/08 08:59:22;;;;;;;15.85;8.70;;;;;;;;;;6271451;28;20419;-56
2023/04/08 09:02:30;;;;;;;15.45;8.00;;;;;;;;;;6277317;28;20130;-54
2023/04/08 09:05:46;;;;;;;12.95;6.70;;;;;;;;;;6268904;28;20036;-56
2023/04/08 09:08:47;;;;;;;14.80;7.50;;;;;;;;;;6280335;28;20123;-56
2023/04/08 09:11:48;;;;;;;16.27;7.70;;;;;;;;;;6278322;28;20070;-56
2023/04/08 09:14:49;;;;;;;13.45;7.90;;;;;;;;;;6292476;28;20052;-55
2023/04/08 09:17:50;;;;;;;15.23;7.03;;;;;;;;;;6276514;28;20052;-55
2023/04/08 09:20:52;;;;;;;14.30;7.38;;;;;;;;;;6271947;28;20055;-56
2023/04/08 09:23:53;;;;;;;13.68;7.70;;;;;;;;;;6276089;28;20090;-57
2023/04/08 09:26:55;;;;;;;15.82;8.65;;;;;;;;;;6276611;28;20052;-58
2023/04/08 09:30:12;;;;;;;21.10;12.05;;;;;;;;;;6291892;28;20531;-56
2023/04/08 09:33:12;;;;;;;15.18;8.05;;;;;;;;;;6274701;28;20183;-55
2023/04/08 09:36:15;;;;;;;17.50;9.30;;;;;;;;;;6275068;28;20488;-60
2023/04/08 09:39:15;;;;;;;17.23;10.68;;;;;;;;;;6271419;28;20218;-56
2023/04/08 09:42:19;;;;;;;19.30;10.70;;;;;;;;;;6270609;28;20052;-57
2023/04/08 09:45:20;;;;;;;19.48;10.02;;;;;;;;;;6271926;28;20056;-57
2023/04/08 09:48:30;;;;;;;19.23;10.27;;;;;;;;;;6269938;28;20583;-57
2023/04/08 09:51:43;;;;;;;20.83;11.63;;;;;;;;;;6268535;28;20052;-57
2023/04/08 09:55:04;;;;;;;18.08;9.60;;;;;;;;;;6272394;28;20049;-61
2023/04/08 09:58:12;;;;;;;17.92;10.00;;;;;;;;;;6283372;28;20052;-62
2023/04/08 10:01:13;;;;;;;18.10;9.57;;;;;;;;;;6285582;28;20055;-61
2023/04/08 10:04:17;;;;;;;21.58;11.07;;;;;;;;;;6272621;28;20147;-60
2023/04/08 10:07:18;;;;;;;16.05;9.50;;;;;;;;;;6273489;28;20044;-61
2023/04/08 10:10:19;;;;;;;17.52;9.45;;;;;;;;;;6273092;28;20384;-61
2023/04/08 10:13:21;;;;;;;16.92;9.73;;;;;;;;;;6271638;28;20052;-62
2023/04/08 10:16:24;;;;;;;17.40;9.73;;;;;;;;;;6287831;28;20404;-62
2023/04/08 10:19:51;;;;;;;19.92;9.73;;;;;;;;;;6277489;28;20088;-62
2023/04/08 10:22:52;;;;;;;17.38;9.93;;;;;;;;;;6279489;28;20075;-62
2023/04/08 10:25:52;;;;;;;16.70;8.93;;;;;;;;;;6271623;28;20060;-62
2023/04/08 10:28:53;;;;;;;16.20;9.10;;;;;;;;;;6272816;28;20052;-62
2023/04/08 10:31:54;;;;;;;17.73;9.38;;;;;;;;;;6271256;28;20040;-62
2023/04/08 10:34:54;;;;;;;18.63;9.27;;;;;;;;;;6268421;28;20619;-61
2023/04/08 10:37:56;;;;;;;16.08;9.05;;;;;;;;;;6282489;28;20403;-62
2023/04/08 10:40:57;;;;;;;15.75;8.68;;;;;;;;;;6269811;28;20116;-63
2023/04/08 10:43:58;;;;;;;18.45;8.85;;;;;;;;;;6269346;28;20056;-62
2023/04/08 10:46:59;;;;;;;15.07;8.00;;;;;;;;;;6275610;28;20056;-62
2023/04/08 10:50:11;;;;;;;42.70;13.98;;;;;;;;;;6289443;28;20049;-62
2023/04/08 10:53:11;;;;;;;33.20;14.00;;;;;;;;;;6272894;28;20095;-62
2023/04/08 10:56:17;;;;;;;17.27;9.50;;;;;;;;;;6270621;28;20108;-62
2023/04/08 10:59:31;;;;;;;17.10;9.23;;;;;;;;;;6271507;28;20041;-62
2023/04/08 11:02:32;;;;;;;21.00;11.05;;;;;;;;;;6272838;28;20048;-62
2023/04/08 11:05:37;;;;;;;28.58;14.07;;;;;;;;;;6277138;28;20041;-62
2023/04/08 11:08:38;;;;;;;18.52;10.55;;;;;;;;;;6272254;28;20044;-62
2023/04/08 11:11:44;;;;;;;16.75;10.32;;;;;;;;;;6271142;28;20071;-62
2023/04/08 11:14:44;;;;;;;18.15;10.20;;;;;;;;;;6274673;28;20044;-62
2023/04/08 11:17:47;;;;;;;18.17;10.40;;;;;;;;;;6289697;28;20055;-62
2023/04/08 11:20:51;;;;;;;22.15;11.55;;;;;;;;;;6276941;28;20389;-62
2023/04/08 11:23:52;;;;;;;19.33;10.02;;;;;;;;;;6271218;28;20052;-62
2023/04/08 11:26:53;;;;;;;20.38;10.98;;;;;;;;;;6269014;28;20063;-62
2023/04/08 11:29:58;;;;;;;19.48;10.82;;;;;;;;;;6274893;28;20055;-62
2023/04/08 11:32:58;;;;;;;22.98;11.75;;;;;;;;;;6274693;28;20044;-62
2023/04/08 11:36:03;;;;;;;19.48;10.73;;;;;;;;;;6274848;28;20091;-62
2023/04/08 11:39:08;;;;;;;20.88;11.50;;;;;;;;;;6275672;28;20052;-63
2023/04/08 11:42:25;;;;;;;20.83;10.63;;;;;;;;;;6276433;28;20041;-62
2023/04/08 11:45:27;;;;;;;21.77;10.73;;;;;;;;;;6274865;28;20048;-62
2023/04/08 11:48:27;;;;;;;20.95;10.80;;;;;;;;;;6276798;28;20045;-62
2023/04/08 11:51:28;;;;;;;21.83;11.88;;;;;;;;;;6277306;28;20114;-63
2023/04/08 11:54:30;;;;;;;22.92;11.98;;;;;;;;;;6288892;28;20053;-61
2023/04/08 11:57:31;;;;;;;24.73;13.35;;;;;;;;;;6278982;28;20480;-61
2023/04/08 12:00:32;;;;;;;22.58;11.75;;;;;;;;;;6282954;28;20056;-62
2023/04/08 12:03:32;;;;;;;24.50;12.68;;;;;;;;;;6284524;28;20049;-62
2023/04/08 12:06:33;;;;;;;26.15;13.75;;;;;;;;;;6287761;28;20051;-62
2023/04/08 12:09:34;;;;;;;25.75;13.98;;;;;;;;;;6295213;28;20040;-61
2023/04/08 12:12:34;;;;;;;25.33;13.20;;;;;;;;;;6296171;28;20041;-61
2023/04/08 12:15:35;;;;;;;29.45;14.07;;;;;;;;;;6295952;28;20048;-62
2023/04/08 12:18:36;;;;;;;20.42;12.48;;;;;;;;;;6295222;28;20044;-62
2023/04/08 12:21:37;;;;;;;26.17;14.17;;;;;;;;;;6294890;28;20041;-62
2023/04/08 12:24:37;;;;;;;26.08;14.10;;;;;;;;;;6296243;28;20059;-62
2023/04/08 12:27:38;;;;;;;23.25;13.15;;;;;;;;;;6295720;28;20056;-61
2023/04/08 12:30:38;;;;;;;21.50;12.13;;;;;;;;;;6281390;28;20053;-62
2023/04/08 12:33:39;;;;;;;22.90;12.48;;;;;;;;;;6270737;28;20057;-61
2023/04/08 12:36:40;;;;;;;27.65;14.43;;;;;;;;;;6272718;28;20143;-61
2023/04/08 12:39:41;;;;;;;27.02;14.40;;;;;;;;;;6269900;28;20063;-60
2023/04/08 12:42:42;;;;;;;25.60;13.38;;;;;;;;;;6279902;28;20049;-61
2023/04/08 12:45:43;;;;;;;24.67;13.18;;;;;;;;;;6276239;28;20056;-61
2023/04/08 12:48:44;;;;;;;29.08;14.98;;;;;;;;;;6284269;28;20102;-60
2023/04/08 12:51:45;;;;;;;31.27;17.13;;;;;;;;;;6270475;28;20066;-61
2023/04/08 12:54:45;;;;;;;28.10;14.98;;;;;;;;;;6295374;28;20060;-60
2023/04/08 12:57:46;;;;;;;34.25;17.00;;;;;;;;;;6295183;28;20055;-61
2023/04/08 13:00:48;;;;;;;25.13;12.85;;;;;;;;;;6291461;28;20477;-60
2023/04/08 13:03:49;;;;;;;29.88;15.05;;;;;;;;;;6269829;28;20579;-62
2023/04/08 13:06:50;;;;;;;32.70;16.92;;;;;;;;;;6270089;28;20049;-61
2023/04/08 13:09:51;;;;;;;31.30;16.03;;;;;;;;;;6271254;28;20057;-62
2023/04/08 13:12:51;;;;;;;31.02;16.30;;;;;;;;;;6281937;28;20118;-62
2023/04/08 13:15:52;;;;;;;28.38;14.10;;;;;;;;;;6277166;28;20052;-62
2023/04/08 13:18:53;;;;;;;29.60;14.30;;;;;;;;;;6283094;28;20052;-62
2023/04/08 13:21:53;;;;;;;28.38;13.52;;;;;;;;;;6284390;28;20045;-63
2023/04/08 13:24:54;;;;;;;30.20;15.45;;;;;;;;;;6282375;28;20052;-64
2023/04/08 13:27:55;;;;;;;27.70;13.80;;;;;;;;;;6278411;28;20605;-61
2023/04/08 13:30:55;;;;;;;29.83;14.35;;;;;;;;;;6281891;28;20052;-70
2023/04/08 13:33:56;;;;;;;30.33;13.77;;;;;;;;;;6278049;28;20048;-62
2023/04/08 13:36:56;;;;;;;32.33;16.00;;;;;;;;;;6282491;28;20055;-64
2023/04/08 13:39:57;;;;;;;33.15;18.75;;;;;;;;;;6281383;28;20067;-62
2023/04/08 13:42:58;;;;;;;28.88;14.98;;;;;;;;;;6280765;28;20063;-63
2023/04/08 13:45:58;;;;;;;28.00;14.80;;;;;;;;;;6279398;28;20053;-61
2023/04/08 13:48:59;;;;;;;31.30;15.90;;;;;;;;;;6281610;28;20091;-61
2023/04/08 13:52:00;;;;;;;29.55;15.40;;;;;;;;;;6281526;28;20854;-61
2023/04/08 13:55:00;;;;;;;25.10;13.02;;;;;;;;;;6278176;28;20343;-61
2023/04/08 13:58:01;;;;;;;28.73;14.43;;;;;;;;;;6281116;28;20498;-61
2023/04/08 14:01:01;;;;;;;27.80;13.18;;;;;;;;;;6281149;28;20081;-62
2023/04/08 14:04:02;;;;;;;27.08;13.65;;;;;;;;;;6278588;28;20056;-61
2023/04/08 14:07:03;;;;;;;26.05;13.10;;;;;;;;;;6278520;28;20442;-61
2023/04/08 14:10:04;;;;;;;24.73;12.43;;;;;;;;;;6280031;28;20084;-63
2023/04/08 14:13:04;;;;;;;26.25;12.65;;;;;;;;;;6280061;28;20053;-63
2023/04/08 14:16:05;;;;;;;25.13;13.07;;;;;;;;;;6280319;28;20170;-62
2023/04/08 14:19:06;;;;;;;32.20;14.10;;;;;;;;;;6280357;28;20048;-63
2023/04/08 14:22:07;;;;;;;27.85;15.38;;;;;;;;;;6280849;28;20056;-65
2023/04/08 14:25:08;;;;;;;27.55;14.90;;;;;;;;;;6278120;28;20189;-64
2023/04/08 14:28:08;;;;;;;28.52;15.20;;;;;;;;;;6280529;28;20058;-65
2023/04/08 14:31:09;;;;;;;33.70;16.30;;;;;;;;;;6280770;28;20506;-65
2023/04/08 14:34:10;;;;;;;32.47;16.38;;;;;;;;;;6277331;28;20063;-62
2023/04/08 14:37:11;;;;;;;29.58;15.70;;;;;;;;;;6280676;28;20094;-62
2023/04/08 14:40:11;;;;;;;29.43;14.93;;;;;;;;;;6279584;28;20213;-63
2023/04/08 14:43:12;;;;;;;30.60;15.15;;;;;;;;;;6278554;28;20945;-61
2023/04/08 14:46:13;;;;;;;32.33;17.75;;;;;;;;;;6280332;28;20060;-61
2023/04/08 14:49:13;;;;;;;28.90;13.93;;;;;;;;;;6279639;28;20048;-62
2023/04/08 14:52:14;;;;;;;32.10;15.43;;;;;;;;;;6280581;28;20139;-62
2023/04/08 14:55:16;;;;;;;28.42;15.65;;;;;;;;;;6277709;28;20052;-62
2023/04/08 14:58:17;;;;;;;28.38;14.80;;;;;;;;;;6280553;28;20049;-61
2023/04/08 15:01:17;;;;;;;29.88;14.75;;;;;;;;;;6280228;28;20083;-63
2023/04/08 15:04:18;;;;;;;29.05;14.82;;;;;;;;;;6276622;28;20156;-63
2023/04/08 15:07:18;;;;;;;29.75;16.00;;;;;;;;;;6280074;28;20044;-67
2023/04/08 15:10:19;;;;;;;30.67;17.45;;;;;;;;;;6280041;28;20110;-63
2023/04/08 15:13:22;;;;;;;32.25;15.73;;;;;;;;;;6277576;28;20143;-63
2023/04/08 15:16:22;;;;;;;34.03;18.00;;;;;;;;;;6279978;28;20048;-62
2023/04/08 15:19:23;;;;;;;35.58;19.58;;;;;;;;;;6279040;28;20061;-63
2023/04/08 15:22:24;;;;;;;33.42;17.63;;;;;;;;;;6281386;28;20044;-63
2023/04/08 15:25:24;;;;;;;34.83;16.98;;;;;;;;;;6277516;28;20595;-64
2023/04/08 15:28:26;;;;;;;32.63;16.80;;;;;;;;;;6279168;28;20057;-63
2023/04/08 15:31:26;;;;;;;33.33;17.02;;;;;;;;;;6280169;28;20391;-62
2023/04/08 15:34:27;;;;;;;34.95;16.58;;;;;;;;;;6276823;28;20068;-64
2023/04/08 15:37:27;;;;;;;34.28;17.30;;;;;;;;;;6280839;28;20525;-63
2023/04/08 15:40:31;;;;;;;36.17;18.85;;;;;;;;;;6279644;28;20044;-63
2023/04/08 15:43:31;;;;;;;45.05;20.48;;;;;;;;;;6277297;28;20053;-63
2023/04/08 15:46:32;;;;;;;36.35;17.27;;;;;;;;;;6280584;28;20140;-63
2023/04/08 15:49:32;;;;;;;33.88;17.70;;;;;;;;;;6278905;28;20048;-63
2023/04/08 15:52:34;;;;;;;37.90;18.42;;;;;;;;;;6279360;28;20059;-63
2023/04/08 15:55:39;;;;;;;34.95;18.52;;;;;;;;;;6277013;28;20400;-64
2023/04/08 15:58:44;;;;;;;38.53;18.70;;;;;;;;;;6278652;28;20145;-64
2023/04/08 16:01:45;;;;;;;37.97;19.15;;;;;;;;;;6278009;28;20060;-64
2023/04/08 16:04:46;;;;;;;38.40;18.48;;;;;;;;;;6274782;28;20052;-65
2023/04/08 16:07:46;;;;;;;63.72;29.58;;;;;;;;;;6280410;28;20079;-62
2023/04/08 16:10:47;;;;;;;70.65;27.83;;;;;;;;;;6278197;28;20079;-61
2023/04/08 16:13:48;;;;;;;59.10;25.15;;;;;;;;;;6275398;28;20106;-61
2023/04/08 16:16:50;;;;;;;48.28;22.17;;;;;;;;;;6283119;28;20127;-64
2023/04/08 16:19:51;;;;;;;41.03;20.70;;;;;;;;;;6279273;28;20053;-64
2023/04/08 16:22:51;;;;;;;34.90;18.23;;;;;;;;;;6274654;28;20041;-64
2023/04/08 16:25:52;;;;;;;34.83;17.20;;;;;;;;;;6273276;28;20052;-64
2023/04/08 16:28:52;;;;;;;36.20;20.08;;;;;;;;;;6274822;28;20140;-64
2023/04/08 16:31:53;;;;;;;39.15;20.17;;;;;;;;;;6274396;28;20546;-63
2023/04/08 16:34:54;;;;;;;33.80;17.95;;;;;;;;;;6270934;28;20094;-64
2023/04/08 16:37:54;;;;;;;34.92;16.92;;;;;;;;;;6275156;28;20052;-64
2023/04/08 16:40:57;;;;;;;39.10;21.00;;;;;;;;;;6276060;28;20041;-63
2023/04/08 16:43:57;;;;;;;;;;;;;;;;;;6271533;28;20049;-63
2023/04/08 16:46:58;;;;;;;36.63;20.33;;;;;;;;;;6275589;28;20500;-64
2023/04/08 16:49:58;;;;;;;37.03;19.42;;;;;;;;;;6274092;28;20064;-64
2023/04/08 16:52:59;;;;;;;37.28;19.73;;;;;;;;;;6272838;28;20045;-64
2023/04/08 16:56:00;;;;;;;36.35;19.10;;;;;;;;;;6272360;28;20060;-61
2023/04/08 16:59:01;;;;;;;40.22;20.55;;;;;;;;;;6268947;28;20094;-60
2023/04/08 17:02:02;;;;;;;39.72;19.85;;;;;;;;;;6275052;28;20045;-62
2023/04/08 17:05:03;;;;;;;53.65;26.17;;;;;;;;;;6272852;28;20653;-62
2023/04/08 17:08:03;;;;;;;65.90;33.75;;;;;;;;;;6274367;28;20044;-59
2023/04/08 17:11:06;;;;;;;84.25;42.95;;;;;;;;;;6273501;28;20138;-60
2023/04/08 17:14:06;;;;;;;72.18;37.28;;;;;;;;;;6269999;28;20490;-59
2023/04/08 17:17:07;;;;;;;59.70;29.40;;;;;;;;;;6275344;28;20051;-59
2023/04/08 17:20:08;;;;;;;66.72;32.50;;;;;;;;;;6272993;28;20083;-60
2023/04/08 17:23:09;;;;;;;72.13;33.83;;;;;;;;;;6272701;28;20219;-62
2023/04/08 17:26:11;;;;;;;54.17;27.42;;;;;;;;;;6272689;28;20052;-62
2023/04/08 17:29:12;;;;;;;48.50;22.30;;;;;;;;;;6278564;28;20483;-63
2023/04/08 17:32:12;;;;;;;45.97;23.63;;;;;;;;;;6280791;28;20142;-59
2023/04/08 17:35:13;;;;;;;44.80;23.33;;;;;;;;;;6278400;28;20498;-59
2023/04/08 17:38:13;;;;;;;54.45;26.25;;;;;;;;;;6282576;28;20514;-61